Portada
METAR-TAF:

METAR-TAF

Aeroports :

Shawbury, Anglaterra

latitud: 52-48N, longitud: 002-40W, altitud: 76 m

Observació

L'informe es va fer fa 43 minuts, a les 19:50 UTC
Vent 4 kt del Nord
Temperatura 20°C
Humitat 46%
Pressió 1022 hPa
Visibilitat 10 km o més

METAR: EGOS 011950Z AUTO 35004KT 9999 FEW060/// 20/08 Q1022

Hora: 21:33 (20:33 UTC)

Pronòstic

L'informe es va fer fa 6 hores i 52 minuts, a les 13:41 UTC
Pronòstic vàlid del 01 a les 15 UTC al 01 a les 19 UTC
Vent 8 kt del Est/Nord-Est
Visibilitat 10 km o més
sense núvols per sota de 1500 mi sense presència de cumulonimbus.

TAF: EGOS 011341Z 0115/0119 06008KT CAVOK

Observacions i pronòstics meteorològics de més de 4000 aeroports (METAR i TAF).

Les estacions disponibles són els punts grocs i vermells al mapa.

Posi el ratolí al punt desitjat per veure el nom de l'estació.

Feu clic per veure les observacions i els pronòstics meteorològics.

Per canviar el mapa: feu clic els botons verds amb una creu de color negre per apropar; al botó verd amb un guió per allunyar la imatge; o en les fletxes verdes per a mapes adjacents.


METAR-TAF: